Time;durP1;ratioP1;P1;durP2;ratioP2;P2;SDS_P1;SDS_P2;PMS_P1;PMS_P2;Temp;Humidity;BMP_temperature;BMP_pressure;BME280_temperature;BME280_humidity;BME280_pressure;Samples;Min_cycle;Max_cycle;Signal;HPM_P1;HPM_P2
2024/03/15 00:01:07;;;;;;;7.70;4.33;;;9.10;98.00;;;;;;5095165;28;20483;-70
2024/03/15 00:03:35;;;;;;;10.13;4.57;;;9.10;98.00;;;;;;5095311;28;20458;-70
2024/03/15 00:06:02;;;;;;;9.73;4.77;;;9.00;98.00;;;;;;5095244;28;20484;-70
2024/03/15 00:08:29;;;;;;;8.47;4.20;;;8.90;98.00;;;;;;5095102;28;20455;-70
2024/03/15 00:10:59;;;;;;;7.60;4.13;;;8.90;98.00;;;;;;5095162;28;20454;-70
2024/03/15 00:13:26;;;;;;;9.33;4.47;;;8.90;98.00;;;;;;5095633;28;21124;-70
2024/03/15 00:15:53;;;;;;;8.00;4.07;;;9.00;98.00;;;;;;5095115;28;20461;-70
2024/03/15 00:18:22;;;;;;;6.63;4.33;;;8.90;98.00;;;;;;5094869;28;20533;-70
2024/03/15 00:20:49;;;;;;;7.43;4.23;;;8.90;98.00;;;;;;5095277;28;20474;-70
2024/03/15 00:23:15;;;;;;;10.93;4.70;;;8.80;98.00;;;;;;5095394;28;21017;-70
2024/03/15 00:25:43;;;;;;;6.67;4.23;;;8.80;98.00;;;;;;5095055;28;20457;-70
2024/03/15 00:28:10;;;;;;;9.00;4.10;;;8.80;98.00;;;;;;5094160;28;20454;-70
2024/03/15 00:30:37;;;;;;;7.97;4.40;;;8.90;98.00;;;;;;5106607;27;20462;-70
2024/03/15 00:33:05;;;;;;;7.23;3.93;;;8.80;98.00;;;;;;5114939;27;20490;-70
2024/03/15 00:35:32;;;;;;;15.83;4.83;;;8.60;98.00;;;;;;5114808;27;20498;-70
2024/03/15 00:37:59;;;;;;;6.60;4.10;;;8.60;98.00;;;;;;5114701;27;20969;-69
2024/03/15 00:40:27;;;;;;;9.37;4.20;;;8.70;98.00;;;;;;5114633;27;20446;-70
2024/03/15 00:42:54;;;;;;;6.53;3.90;;;8.60;98.00;;;;;;5114519;27;20457;-70
2024/03/15 00:45:21;;;;;;;5.70;3.60;;;8.50;98.00;;;;;;5114739;27;20450;-70
2024/03/15 00:47:51;;;;;;;9.60;4.30;;;8.50;98.00;;;;;;5114849;27;20449;-69
2024/03/15 00:50:18;;;;;;;10.80;3.90;;;8.40;98.00;;;;;;5115064;27;20450;-69
2024/03/15 00:52:46;;;;;;;5.73;3.63;;;8.60;98.00;;;;;;5115061;28;20454;-70
2024/03/15 00:55:14;;;;;;;6.43;3.80;;;8.70;98.00;;;;;;5114583;28;20461;-70
2024/03/15 00:57:41;;;;;;;6.63;4.03;;;8.70;98.00;;;;;;5114673;28;20454;-70
2024/03/15 01:00:10;;;;;;;10.90;4.33;;;8.80;98.00;;;;;;5114614;28;20485;-69
2024/03/15 01:02:37;;;;;;;5.40;3.50;;;8.60;98.00;;;;;;5114800;28;20563;-70
2024/03/15 01:05:07;;;;;;;10.30;3.70;;;8.40;98.00;;;;;;5114483;28;20449;-70
2024/03/15 01:07:34;;;;;;;6.67;4.00;;;8.50;98.00;;;;;;5115074;28;20489;-70
2024/03/15 01:10:02;;;;;;;6.60;3.70;;;8.50;98.00;;;;;;5114250;28;20445;-70
2024/03/15 01:12:29;;;;;;;5.83;3.60;;;8.50;98.00;;;;;;5114877;28;20461;-70
2024/03/15 01:14:57;;;;;;;6.60;3.93;;;8.40;98.00;;;;;;5114617;28;20505;-70
2024/03/15 01:17:24;;;;;;;7.67;4.13;;;8.50;98.00;;;;;;5114397;28;20448;-70
2024/03/15 01:19:52;;;;;;;7.17;4.10;;;8.60;98.00;;;;;;5114622;28;20450;-70
2024/03/15 01:22:21;;;;;;;8.93;3.90;;;8.70;98.00;;;;;;5114542;28;20485;-70
2024/03/15 01:24:48;;;;;;;6.97;3.77;;;8.70;98.00;;;;;;5114827;28;20455;-69
2024/03/15 01:27:16;;;;;;;10.20;4.10;;;8.50;98.00;;;;;;5114307;28;20456;-69
2024/03/15 01:29:44;;;;;;;5.83;3.70;;;8.60;98.00;;;;;;5114612;28;21140;-69
2024/03/15 01:32:11;;;;;;;9.57;4.00;;;8.50;98.00;;;;;;5114169;28;20530;-70
2024/03/15 01:34:38;;;;;;;6.30;3.53;;;8.50;98.00;;;;;;5114409;28;20456;-70
2024/03/15 01:37:05;;;;;;;8.50;3.67;;;8.50;98.00;;;;;;5114237;28;20450;-70
2024/03/15 01:39:35;;;;;;;8.00;4.20;;;8.50;98.00;;;;;;5116236;27;20454;-70
2024/03/15 01:42:02;;;;;;;6.83;3.67;;;8.50;98.00;;;;;;5118597;27;20504;-70
2024/03/15 01:44:37;;;;;;;6.53;3.70;;;8.40;98.00;;;;;;5118493;27;20460;-69
2024/03/15 01:47:04;;;;;;;9.53;3.97;;;8.50;98.00;;;;;;5116958;27;20458;-69
2024/03/15 01:49:31;;;;;;;8.00;3.27;;;8.50;98.00;;;;;;5118338;27;20453;-70
2024/03/15 01:51:58;;;;;;;9.73;3.77;;;8.40;98.00;;;;;;5118212;27;20446;-69
2024/03/15 01:54:28;;;;;;;5.87;3.70;;;8.60;98.00;;;;;;5118287;27;20445;-70
2024/03/15 01:56:56;;;;;;;6.37;3.50;;;8.50;98.00;;;;;;5118472;27;20998;-70
2024/03/15 01:59:24;;;;;;;6.43;3.63;;;8.50;98.00;;;;;;5118124;27;20803;-70
2024/03/15 02:01:57;;;;;;;6.67;3.60;;;8.50;98.00;;;;;;5118127;27;20502;-70
2024/03/15 02:04:24;;;;;;;4.80;3.13;;;8.50;98.00;;;;;;5118823;27;20456;-70
2024/03/15 02:06:51;;;;;;;6.33;3.80;;;8.60;98.00;;;;;;5118035;27;20488;-70
2024/03/15 02:09:19;;;;;;;7.13;4.10;;;8.70;98.00;;;;;;5117962;27;20929;-69
2024/03/15 02:11:47;;;;;;;7.80;4.13;;;8.60;98.00;;;;;;5118002;27;20527;-70
2024/03/15 02:14:14;;;;;;;5.90;3.60;;;8.50;98.00;;;;;;5117584;27;20540;-70
2024/03/15 02:16:42;;;;;;;7.50;3.73;;;8.40;98.00;;;;;;5118084;27;20449;-70
2024/03/15 02:19:10;;;;;;;7.53;3.57;;;8.30;98.00;;;;;;5117940;27;20464;-70
2024/03/15 02:21:38;;;;;;;6.17;3.50;;;8.20;98.00;;;;;;5118094;27;20505;-70
2024/03/15 02:24:06;;;;;;;7.07;3.57;;;8.30;98.00;;;;;;5117822;27;20486;-70
2024/03/15 02:26:33;;;;;;;6.70;3.80;;;8.10;98.00;;;;;;5117348;27;20495;-70
2024/03/15 02:29:02;;;;;;;5.97;3.33;;;8.10;98.00;;;;;;5117258;27;20454;-69
2024/03/15 02:31:30;;;;;;;6.10;3.53;;;8.00;98.00;;;;;;5117017;27;20455;-69
2024/03/15 02:33:57;;;;;;;5.83;3.40;;;8.10;98.00;;;;;;5117526;27;21019;-69
2024/03/15 02:36:25;;;;;;;5.60;3.40;;;8.00;98.00;;;;;;5117512;27;20517;-69
2024/03/15 02:38:52;;;;;;;6.33;3.77;;;8.00;98.00;;;;;;5117048;27;20443;-69
2024/03/15 02:41:20;;;;;;;6.03;3.50;;;8.10;98.00;;;;;;5116926;27;20479;-70
2024/03/15 02:43:47;;;;;;;5.70;3.30;;;8.30;98.00;;;;;;5117319;27;20451;-70
2024/03/15 02:46:16;;;;;;;5.40;3.40;;;8.30;98.00;;;;;;5117026;27;20865;-69
2024/03/15 02:48:44;;;;;;;7.07;3.50;;;8.30;98.00;;;;;;5117293;27;20502;-70
2024/03/15 02:51:11;;;;;;;5.53;3.70;;;8.20;98.00;;;;;;5116562;27;20459;-70
2024/03/15 02:53:38;;;;;;;5.93;3.70;;;8.20;98.00;;;;;;5116885;27;20588;-70
2024/03/15 02:56:06;;;;;;;6.27;3.60;;;8.30;98.00;;;;;;5116523;27;20458;-69
2024/03/15 02:58:34;;;;;;;5.83;3.83;;;8.30;98.00;;;;;;5116537;27;20468;-70
2024/03/15 03:01:02;;;;;;;6.20;3.70;;;8.30;98.00;;;;;;5116515;27;20495;-70
2024/03/15 03:03:31;;;;;;;8.10;3.80;;;8.30;98.00;;;;;;5099852;27;20453;-69
2024/03/15 03:05:58;;;;;;;6.97;3.50;;;8.30;98.00;;;;;;5116874;27;20448;-69
2024/03/15 03:08:25;;;;;;;8.90;3.60;;;8.20;98.00;;;;;;5116768;27;20475;-70
2024/03/15 03:10:52;;;;;;;6.40;3.73;;;8.10;98.00;;;;;;5116481;27;20453;-69
2024/03/15 03:13:19;;;;;;;5.60;3.60;;;8.00;98.00;;;;;;5116493;27;20446;-69
2024/03/15 03:15:47;;;;;;;6.10;3.50;;;7.90;98.00;;;;;;5116335;27;20450;-69
2024/03/15 03:18:15;;;;;;;7.10;3.63;;;8.10;98.00;;;;;;5116493;27;20449;-69
2024/03/15 03:20:42;;;;;;;8.13;3.43;;;7.90;98.00;;;;;;5116589;27;20452;-69
2024/03/15 03:23:09;;;;;;;7.30;3.60;;;7.80;98.00;;;;;;5116387;27;20511;-70
2024/03/15 03:25:36;;;;;;;6.70;3.47;;;7.70;98.00;;;;;;5116314;27;20478;-69
2024/03/15 03:28:03;;;;;;;5.03;3.20;;;7.70;98.00;;;;;;5115811;27;20444;-70
2024/03/15 03:30:30;;;;;;;7.00;4.00;;;7.70;98.00;;;;;;5116283;27;20453;-69
2024/03/15 03:32:58;;;;;;;4.93;3.33;;;7.70;98.00;;;;;;5116312;27;20452;-69
2024/03/15 03:35:26;;;;;;;5.70;3.90;;;7.80;98.00;;;;;;5116489;27;20861;-70
2024/03/15 03:37:53;;;;;;;8.80;4.30;;;7.80;98.00;;;;;;5116173;27;20778;-70
2024/03/15 03:40:24;;;;;;;8.33;3.83;;;7.60;98.00;;;;;;5116149;27;20523;-70
2024/03/15 03:42:51;;;;;;;7.13;3.53;;;7.50;98.00;;;;;;5116030;27;20481;-70
2024/03/15 03:45:19;;;;;;;6.50;3.60;;;7.60;98.00;;;;;;5116127;27;20455;-70
2024/03/15 03:47:46;;;;;;;5.83;3.40;;;7.70;98.00;;;;;;5116235;27;20459;-69
2024/03/15 03:50:14;;;;;;;7.33;3.80;;;7.60;98.00;;;;;;5115944;27;20460;-70
2024/03/15 03:52:41;;;;;;;7.40;3.50;;;7.60;98.00;;;;;;5116096;27;21026;-70
2024/03/15 03:55:08;;;;;;;5.80;3.30;;;7.60;98.00;;;;;;5115455;27;20453;-69
2024/03/15 03:57:35;;;;;;;6.20;3.80;;;7.80;98.00;;;;;;5115819;27;20453;-70
2024/03/15 04:00:14;;;;;;;5.80;3.47;;;7.80;98.00;;;;;;5115748;27;20480;-69
2024/03/15 04:02:45;;;;;;;9.10;3.47;;;7.90;98.00;;;;;;5116678;27;20530;-70
2024/03/15 04:05:13;;;;;;;6.00;3.50;;;7.80;98.00;;;;;;5115388;27;20454;-70
2024/03/15 04:07:40;;;;;;;6.80;3.63;;;7.70;98.00;;;;;;5116045;27;20456;-69
2024/03/15 04:10:07;;;;;;;6.03;3.47;;;7.60;98.00;;;;;;5115689;27;20460;-69
2024/03/15 04:12:35;;;;;;;5.73;3.20;;;7.60;98.00;;;;;;5115719;27;20953;-69
2024/03/15 04:15:02;;;;;;;6.10;3.80;;;7.50;98.00;;;;;;5115600;27;20882;-69
2024/03/15 04:17:30;;;;;;;4.70;3.30;;;7.50;98.00;;;;;;5115278;27;20496;-69
2024/03/15 04:19:57;;;;;;;5.30;3.33;;;7.40;98.00;;;;;;5115310;27;20450;-70
2024/03/15 04:22:25;;;;;;;5.60;3.60;;;7.40;98.00;;;;;;5115040;27;20485;-69
2024/03/15 04:24:54;;;;;;;4.87;3.27;;;7.40;98.00;;;;;;5114880;27;20818;-69
2024/03/15 04:27:21;;;;;;;6.13;3.43;;;7.50;98.00;;;;;;5114998;27;20506;-69
2024/03/15 04:29:48;;;;;;;5.53;3.10;;;7.60;98.00;;;;;;5115149;27;20453;-69
2024/03/15 04:32:17;;;;;;;5.53;3.30;;;7.60;98.00;;;;;;5114985;27;20449;-69
2024/03/15 04:34:47;;;;;;;10.43;3.90;;;7.60;98.00;;;;;;5115482;27;20812;-69
2024/03/15 04:37:15;;;;;;;9.00;4.00;;;7.80;98.00;;;;;;5115318;27;20474;-70
2024/03/15 04:39:42;;;;;;;8.77;3.80;;;7.60;98.00;;;;;;5115085;28;20471;-70
2024/03/15 04:42:12;;;;;;;6.20;3.53;;;7.60;98.00;;;;;;5114769;27;20517;-69
2024/03/15 04:44:40;;;;;;;5.47;3.30;;;7.60;98.00;;;;;;5115422;27;20468;-69
2024/03/15 04:47:09;;;;;;;5.60;3.27;;;7.60;98.00;;;;;;5098491;27;20457;-69
2024/03/15 04:49:36;;;;;;;6.83;4.00;;;7.70;98.00;;;;;;5115038;27;20483;-69
2024/03/15 04:52:03;;;;;;;7.90;3.50;;;7.70;98.00;;;;;;5114750;27;20454;-70
2024/03/15 04:54:31;;;;;;;6.20;3.40;;;7.60;98.00;;;;;;5114803;27;20950;-69
2024/03/15 04:56:59;;;;;;;8.50;4.10;;;7.70;98.00;;;;;;5114784;27;20442;-69
2024/03/15 04:59:26;;;;;;;8.63;3.87;;;7.70;98.00;;;;;;5114865;28;20479;-69
2024/03/15 05:01:53;;;;;;;5.83;3.80;;;7.70;98.00;;;;;;5114552;28;20453;-69
2024/03/15 05:04:20;;;;;;;7.07;3.80;;;7.50;98.00;;;;;;5114807;28;20902;-69
2024/03/15 05:06:49;;;;;;;7.93;3.47;;;7.40;98.00;;;;;;5114305;28;20456;-70
2024/03/15 05:09:17;;;;;;;6.23;3.33;;;7.40;98.00;;;;;;5114599;28;20849;-70
2024/03/15 05:11:44;;;;;;;9.07;4.10;;;7.50;98.00;;;;;;5114718;28;20480;-70
2024/03/15 05:14:11;;;;;;;6.13;3.40;;;7.60;98.00;;;;;;5117445;27;20445;-70
2024/03/15 05:16:39;;;;;;;6.17;3.60;;;7.50;98.00;;;;;;5118794;27;20453;-70
2024/03/15 05:19:06;;;;;;;6.10;3.63;;;7.60;98.00;;;;;;5118843;27;20460;-69
2024/03/15 05:21:34;;;;;;;6.60;3.57;;;7.60;98.00;;;;;;5118539;27;20450;-70
2024/03/15 05:24:02;;;;;;;8.27;4.20;;;7.50;98.00;;;;;;5118799;27;20537;-69
2024/03/15 05:26:31;;;;;;;7.97;4.20;;;7.50;98.00;;;;;;5118626;27;20482;-70
2024/03/15 05:28:58;;;;;;;7.50;4.00;;;7.60;98.00;;;;;;5119042;27;20460;-69
2024/03/15 05:31:26;;;;;;;7.93;4.10;;;7.60;98.00;;;;;;5118555;27;20472;-69
2024/03/15 05:33:55;;;;;;;7.50;4.07;;;7.70;98.00;;;;;;5118770;27;20836;-70
2024/03/15 05:36:23;;;;;;;8.50;4.23;;;7.60;98.00;;;;;;5118764;27;20463;-70
2024/03/15 05:38:50;;;;;;;6.00;3.60;;;7.40;98.00;;;;;;5118715;27;20514;-69
2024/03/15 05:41:17;;;;;;;8.33;3.63;;;7.30;98.00;;;;;;5118644;27;20456;-69
2024/03/15 05:43:44;;;;;;;7.63;3.90;;;7.30;98.00;;;;;;5118672;27;20481;-70
2024/03/15 05:46:12;;;;;;;7.67;4.37;;;7.30;98.00;;;;;;5118753;27;20454;-69
2024/03/15 05:48:40;;;;;;;5.53;3.70;;;7.30;98.00;;;;;;5119011;27;20850;-69
2024/03/15 05:51:08;;;;;;;8.53;3.80;;;7.30;98.00;;;;;;5118960;27;20951;-69
2024/03/15 05:53:39;;;;;;;7.83;3.87;;;7.30;98.00;;;;;;5118975;27;20457;-70
2024/03/15 05:58:51;;;;;;;7.33;4.03;;;7.40;98.00;;;;;;5119944;27;20478;-69
2024/03/15 06:01:18;;;;;;;5.97;3.70;;;7.40;98.00;;;;;;5118449;27;20532;-69
2024/03/15 06:03:46;;;;;;;8.00;3.90;;;7.30;98.00;;;;;;5117688;27;20490;-69
2024/03/15 06:06:13;;;;;;;6.33;3.60;;;7.40;98.00;;;;;;5117891;27;20450;-69
2024/03/15 06:08:42;;;;;;;9.60;4.10;;;7.40;98.00;;;;;;5118125;27;20446;-69
2024/03/15 06:11:11;;;;;;;7.83;4.10;;;7.50;98.00;;;;;;5118135;27;20445;-69
2024/03/15 06:13:38;;;;;;;10.80;4.13;;;7.50;98.00;;;;;;5117701;27;20449;-69
2024/03/15 06:16:10;;;;;;;8.30;4.80;;;7.60;98.00;;;;;;5100327;27;20450;-70
2024/03/15 06:18:37;;;;;;;8.63;4.50;;;7.80;98.00;;;;;;5118309;27;20503;-69
2024/03/15 06:21:06;;;;;;;9.27;4.63;;;7.80;98.00;;;;;;5117600;27;20464;-69
2024/03/15 06:23:33;;;;;;;6.30;3.80;;;7.70;98.00;;;;;;5117511;27;20485;-70
2024/03/15 06:26:02;;;;;;;7.73;4.23;;;7.60;98.00;;;;;;5116013;27;20458;-69
2024/03/15 06:28:29;;;;;;;7.40;4.20;;;7.60;98.00;;;;;;5117482;27;20475;-69
2024/03/15 06:30:57;;;;;;;7.13;3.63;;;7.80;98.00;;;;;;5117139;27;20967;-69
2024/03/15 06:33:28;;;;;;;7.60;4.20;;;7.80;98.00;;;;;;5117356;27;20445;-70
2024/03/15 06:35:57;;;;;;;6.97;4.30;;;7.80;98.00;;;;;;5117705;27;20456;-69
2024/03/15 06:38:40;;;;;;;6.57;3.90;;;7.70;98.00;;;;;;5117562;27;20478;-69
2024/03/15 06:41:14;;;;;;;7.40;4.10;;;7.70;98.00;;;;;;5119534;27;20474;-70
2024/03/15 06:43:42;;;;;;;7.10;4.13;;;7.70;98.00;;;;;;5117902;27;21032;-70
2024/03/15 06:46:19;;;;;;;8.87;4.37;;;7.80;98.00;;;;;;5117395;27;20462;-69
2024/03/15 06:48:56;;;;;;;11.00;4.80;;;7.80;98.00;;;;;;5117919;27;20441;-69
2024/03/15 06:54:09;;;;;;;8.20;4.50;;;7.80;98.00;;;;;;5119244;27;20477;-69
2024/03/15 06:56:37;;;;;;;8.70;4.50;;;7.90;98.00;;;;;;5116772;27;20448;-69
2024/03/15 06:59:05;;;;;;;7.53;4.37;;;8.10;98.00;;;;;;5115925;27;20505;-75
2024/03/15 07:01:33;;;;;;;11.87;5.13;;;8.20;98.00;;;;;;5116293;27;20937;-76
2024/03/15 07:04:00;;;;;;;11.40;5.60;;;8.20;98.00;;;;;;5116915;27;20482;-76
2024/03/15 07:06:28;;;;;;;10.30;5.00;;;8.30;98.00;;;;;;5116907;27;20460;-77
2024/03/15 07:08:58;;;;;;;12.53;5.90;;;8.30;98.00;;;;;;5116886;27;20536;-74
2024/03/15 07:11:32;;;;;;;13.47;6.10;;;8.30;98.00;;;;;;5100561;27;20447;-76
2024/03/15 07:14:04;;;;;;;12.10;5.57;;;8.20;98.00;;;;;;5117324;27;20477;-77
2024/03/15 07:16:31;;;;;;;9.00;4.80;;;8.20;98.00;;;;;;5116617;27;20942;-77
2024/03/15 07:18:59;;;;;;;9.30;4.90;;;8.20;98.00;;;;;;5116659;27;20846;-73
2024/03/15 07:21:26;;;;;;;8.80;4.80;;;8.30;98.00;;;;;;5116587;27;20593;-73
2024/03/15 07:23:53;;;;;;;9.47;5.00;;;8.30;98.00;;;;;;5116367;27;20573;-74
2024/03/15 07:26:22;;;;;;;10.73;5.50;;;8.40;98.00;;;;;;5116406;27;20462;-73
2024/03/15 07:28:49;;;;;;;14.43;5.40;;;8.50;98.00;;;;;;5116593;27;20450;-73
2024/03/15 07:31:18;;;;;;;10.83;5.63;;;8.60;98.00;;;;;;5116533;27;20450;-74
2024/03/15 07:33:46;;;;;;;9.73;5.70;;;8.50;98.00;;;;;;5116494;27;20530;-74
2024/03/15 07:36:14;;;;;;;10.63;5.40;;;8.70;98.00;;;;;;5115466;28;20454;-74
2024/03/15 07:38:41;;;;;;;12.17;6.00;;;8.70;98.00;;;;;;5116298;27;20488;-74
2024/03/15 07:41:11;;;;;;;12.00;6.27;;;8.70;98.00;;;;;;5116289;27;20444;-73
2024/03/15 07:43:38;;;;;;;10.80;5.63;;;8.80;98.00;;;;;;5116199;27;20543;-72
2024/03/15 07:46:05;;;;;;;9.93;5.70;;;8.80;98.00;;;;;;5116127;27;20451;-73
2024/03/15 07:48:32;;;;;;;10.60;5.80;;;8.90;98.00;;;;;;5116575;27;20450;-73
2024/03/15 07:50:59;;;;;;;13.03;5.80;;;8.90;98.00;;;;;;5115602;27;20454;-73
2024/03/15 07:53:26;;;;;;;11.00;5.27;;;9.10;98.00;;;;;;5116404;27;20466;-73
2024/03/15 07:55:53;;;;;;;10.47;5.70;;;9.40;98.00;;;;;;5115842;27;20450;-73
2024/03/15 07:58:23;;;;;;;12.67;6.50;;;9.50;98.00;;;;;;5115411;27;20465;-76
2024/03/15 08:00:51;;;;;;;13.40;6.60;;;9.60;98.00;;;;;;5115764;27;20484;-75
2024/03/15 08:03:18;;;;;;;13.00;6.20;;;9.70;98.00;;;;;;5116007;27;20536;-72
2024/03/15 08:05:46;;;;;;;10.30;5.30;;;9.80;98.00;;;;;;5115541;27;21021;-75
2024/03/15 08:08:15;;;;;;;10.60;5.30;;;10.00;98.00;;;;;;5115516;27;20442;-72
2024/03/15 08:10:43;;;;;;;9.93;5.10;;;10.20;98.00;;;;;;5115464;27;20477;-72
2024/03/15 08:13:11;;;;;;;8.80;5.00;;;10.40;98.00;;;;;;5115353;27;20450;-73
2024/03/15 08:15:41;;;;;;;7.73;3.87;;;10.70;98.00;;;;;;5115608;27;20469;-73
2024/03/15 08:18:08;;;;;;;4.83;3.10;;;10.90;98.00;;;;;;5115394;27;20453;-74
2024/03/15 08:20:37;;;;;;;6.87;4.10;;;11.20;98.00;;;;;;5115315;27;20818;-73
2024/03/15 08:23:07;;;;;;;4.53;3.23;;;11.50;98.00;;;;;;5115200;27;20482;-65
2024/03/15 08:25:36;;;;;;;7.90;3.73;;;11.80;98.00;;;;;;5115631;27;20958;-74
2024/03/15 08:28:03;;;;;;;8.53;4.13;;;12.40;98.00;;;;;;5115260;27;20832;-73
2024/03/15 08:30:32;;;;;;;7.23;3.90;;;12.70;98.00;;;;;;5115231;27;20452;-74
2024/03/15 08:33:03;;;;;;;6.13;3.83;;;12.90;98.00;;;;;;5123808;27;20438;-75
2024/03/15 08:35:30;;;;;;;5.60;3.53;;;13.10;98.00;;;;;;5135904;27;20447;-75
2024/03/15 08:37:58;;;;;;;8.00;3.80;;;13.30;98.00;;;;;;5135547;27;20457;-72
2024/03/15 08:40:25;;;;;;;7.07;3.37;;;13.60;98.00;;;;;;5122809;27;20470;-72
2024/03/15 08:42:53;;;;;;;7.37;3.33;;;13.80;98.00;;;;;;5114915;27;20834;-73
2024/03/15 08:45:21;;;;;;;5.03;3.00;;;14.00;98.00;;;;;;5115039;27;20456;-73
2024/03/15 08:47:48;;;;;;;4.27;2.87;;;14.20;98.00;;;;;;5114737;27;20458;-74
2024/03/15 08:50:16;;;;;;;9.23;3.23;;;14.40;98.00;;;;;;5115047;27;20450;-74
2024/03/15 08:52:43;;;;;;;4.03;2.93;;;14.60;98.00;;;;;;5114334;28;20463;-75
2024/03/15 08:55:13;;;;;;;4.50;3.00;;;14.80;98.00;;;;;;5115054;27;20456;-75
2024/03/15 08:57:45;;;;;;;5.27;3.20;;;14.90;98.00;;;;;;5114983;27;20541;-75
2024/03/15 09:00:13;;;;;;;6.10;3.20;;;15.00;98.00;;;;;;5099387;27;20458;-72
2024/03/15 09:02:40;;;;;;;7.03;3.47;;;15.10;98.00;;;;;;5114609;28;20454;-71
2024/03/15 09:05:08;;;;;;;3.63;2.80;;;15.20;98.00;;;;;;5114773;28;20486;-72
2024/03/15 09:07:36;;;;;;;7.20;2.97;;;15.40;98.00;;;;;;5114859;28;20453;-73
2024/03/15 09:10:07;;;;;;;6.43;3.00;;;15.50;98.00;;;;;;5114820;28;20454;-71
2024/03/15 09:12:35;;;;;;;5.43;3.20;;;15.60;98.00;;;;;;5115507;28;20453;-74
2024/03/15 09:15:03;;;;;;;8.40;2.93;;;15.70;98.00;;;;;;5114899;28;20468;-72
2024/03/15 09:17:31;;;;;;;5.97;3.40;;;15.80;98.00;;;;;;5114841;28;20545;-71
2024/03/15 09:19:58;;;;;;;4.47;2.90;;;15.90;98.00;;;;;;5114851;28;20452;-73
2024/03/15 09:22:28;;;;;;;10.63;3.80;;;16.00;98.00;;;;;;5114760;28;20450;-73
2024/03/15 09:24:55;;;;;;;6.47;3.30;;;16.20;98.00;;;;;;5115189;28;20478;-72
2024/03/15 09:27:22;;;;;;;6.23;3.53;;;16.20;98.00;;;;;;5114815;28;20457;-75
2024/03/15 09:29:50;;;;;;;3.33;2.60;;;16.40;98.00;;;;;;5114274;28;20457;-71
2024/03/15 09:32:17;;;;;;;3.60;2.80;;;16.60;98.00;;;;;;5114626;28;20446;-73
2024/03/15 09:34:48;;;;;;;5.20;3.10;;;16.90;98.00;;;;;;5114826;28;20473;-73
2024/03/15 09:37:16;;;;;;;5.10;3.40;;;17.10;98.00;;;;;;5115220;28;20454;-72
2024/03/15 09:39:43;;;;;;;6.80;3.17;;;17.20;98.00;;;;;;5113981;28;20438;-73
2024/03/15 09:42:12;;;;;;;4.57;3.10;;;17.30;98.00;;;;;;5102952;28;20440;-75
2024/03/15 09:44:39;;;;;;;7.07;3.43;;;17.40;98.00;;;;;;5090510;28;20480;-75
2024/03/15 09:47:06;;;;;;;5.40;3.33;;;17.50;98.00;;;;;;5073561;28;20467;-74
2024/03/15 09:49:33;;;;;;;4.87;2.93;;;17.60;98.00;;;;;;5254355;22;20500;-73
2024/03/15 09:52:00;;;;;;;4.17;3.10;;;17.60;98.00;;;;;;5069830;28;20480;-75
2024/03/15 09:54:28;;;;;;;4.40;3.00;;;17.70;98.00;;;;;;5070066;28;20453;-74
2024/03/15 09:56:55;;;;;;;4.20;3.30;;;17.90;98.00;;;;;;5069783;28;20495;-73
2024/03/15 09:59:23;;;;;;;6.57;3.47;;;18.00;98.00;;;;;;5069982;28;20464;-75
2024/03/15 10:01:50;;;;;;;5.73;3.47;;;18.10;98.00;;;;;;5073215;28;20464;-75
2024/03/15 10:04:18;;;;;;;4.90;3.20;;;18.20;98.00;;;;;;5073702;28;20488;-74
2024/03/15 10:06:46;;;;;;;6.60;3.67;;;18.40;98.00;;;;;;5073694;28;20457;-74
2024/03/15 10:12:01;;;;;;;7.00;3.60;;;18.90;98.00;;;;;;5135034;22;21247;-88
2024/03/15 10:14:30;;;;;;;4.10;3.23;;;18.90;98.00;;;;;;5057501;28;20456;-88
2024/03/15 10:17:00;;;;;;;6.83;3.30;;;19.10;98.00;;;;;;5057435;28;20915;-88
2024/03/15 10:19:28;;;;;;;6.53;3.20;;;19.40;98.00;;;;;;5062813;28;20432;-87
2024/03/15 10:21:58;;;;;;;5.83;3.10;;;19.40;98.00;;;;;;5080770;28;20477;-87
2024/03/15 10:24:25;;;;;;;6.67;3.20;;;19.40;98.00;;;;;;5060948;28;20905;-88
2024/03/15 10:26:52;;;;;;;4.67;3.43;;;19.20;98.00;;;;;;5039894;28;20962;-88
2024/03/15 10:29:21;;;;;;;6.63;3.00;;;19.10;98.00;;;;;;5040675;28;20445;-88
2024/03/15 10:31:48;;;;;;;4.73;3.20;;;19.00;98.00;;;;;;5040986;28;20556;-88
2024/03/15 10:34:16;;;;;;;4.83;2.90;;;19.20;98.00;;;;;;5040522;28;20459;-87
2024/03/15 10:36:43;;;;;;;6.70;3.40;;;19.30;98.00;;;;;;5039693;28;20445;-88
2024/03/15 10:39:12;;;;;;;3.87;2.90;;;19.20;98.00;;;;;;5040306;28;20444;-88
2024/03/15 10:41:39;;;;;;;4.70;2.93;;;19.10;98.00;;;;;;5040849;28;20843;-89
2024/03/15 10:44:07;;;;;;;4.23;2.83;;;18.80;98.00;;;;;;5039934;28;21014;-89
2024/03/15 10:46:35;;;;;;;3.50;2.80;;;18.50;98.00;;;;;;5038524;28;20453;-88
2024/03/15 10:49:02;;;;;;;5.30;2.77;;;18.10;98.00;;;;;;5040484;28;20438;-88
2024/03/15 10:51:40;;;;;;;3.20;2.37;;;17.70;98.00;;;;;;5040392;28;20469;-89
2024/03/15 10:54:13;;;;;;;3.60;2.40;;;17.30;98.00;;;;;;5040864;28;20451;-88
2024/03/15 10:56:40;;;;;;;4.50;2.40;;;17.00;98.00;;;;;;5041241;28;20963;-88
2024/03/15 10:59:07;;;;;;;3.30;2.23;;;16.70;98.00;;;;;;5040311;28;20432;-89
2024/03/15 11:01:38;;;;;;;2.67;2.20;;;16.60;98.00;;;;;;5041863;28;20468;-89
2024/03/15 11:04:05;;;;;;;3.70;2.47;;;16.30;98.00;;;;;;5042185;28;20530;-89
2024/03/15 11:06:42;;;;;;;4.07;2.40;;;16.20;98.00;;;;;;5041317;28;20494;-88
2024/03/15 11:09:14;;;;;;;2.67;2.20;;;16.10;98.00;;;;;;5041548;28;20819;-88
2024/03/15 11:11:42;;;;;;;4.20;2.70;;;15.90;98.00;;;;;;5039972;28;20517;-88
2024/03/15 11:14:16;;;;;;;3.40;2.50;;;15.80;98.00;;;;;;5040120;28;20456;-88
2024/03/15 11:16:43;;;;;;;3.43;2.60;;;15.70;98.00;;;;;;5041246;28;20508;-87
2024/03/15 11:19:15;;;;;;;4.87;2.60;;;15.70;98.00;;;;;;5039788;28;20453;-86
2024/03/15 11:21:42;;;;;;;4.27;2.97;;;15.60;98.00;;;;;;5040663;28;20468;-88
2024/03/15 11:24:11;;;;;;;4.10;2.63;;;15.50;98.00;;;;;;5040507;28;20476;-88
2024/03/15 11:26:39;;;;;;;4.93;2.43;;;15.50;98.00;;;;;;5039795;28;20440;-88
2024/03/15 11:29:11;;;;;;;6.73;2.50;;;15.50;98.00;;;;;;5039682;28;20460;-88
2024/03/15 11:31:38;;;;;;;3.80;2.70;;;15.40;98.00;;;;;;5040914;28;20469;-88
2024/03/15 11:34:07;;;;;;;3.70;2.50;;;15.40;98.00;;;;;;5039842;28;20441;-88
2024/03/15 11:36:34;;;;;;;5.93;2.87;;;15.40;98.00;;;;;;5039730;28;20452;-88
2024/03/15 11:39:02;;;;;;;2.60;2.20;;;15.40;98.00;;;;;;5039352;28;20449;-88
2024/03/15 11:41:32;;;;;;;3.57;2.40;;;15.40;98.00;;;;;;5039763;28;20473;-88
2024/03/15 11:44:03;;;;;;;11.83;2.70;;;15.50;98.00;;;;;;5038958;28;20507;-88
2024/03/15 11:46:31;;;;;;;6.47;2.37;;;15.50;98.00;;;;;;5040003;28;20440;-89
2024/03/15 11:49:02;;;;;;;2.70;2.23;;;15.50;98.00;;;;;;5039642;28;20461;-89
2024/03/15 11:51:29;;;;;;;4.73;2.73;;;15.50;98.00;;;;;;5039913;28;20469;-89
2024/03/15 11:53:57;;;;;;;6.00;2.50;;;15.50;98.00;;;;;;5040092;28;20453;-89
2024/03/15 11:56:25;;;;;;;4.13;2.60;;;15.60;98.00;;;;;;5041091;28;20445;-89
2024/03/15 11:58:52;;;;;;;3.97;2.70;;;15.60;98.00;;;;;;5039881;28;20461;-89
2024/03/15 12:01:19;;;;;;;2.53;2.13;;;15.60;98.00;;;;;;5039177;28;20469;-89
2024/03/15 12:03:47;;;;;;;3.90;2.40;;;15.60;98.00;;;;;;5039034;28;20448;-88
2024/03/15 12:06:15;;;;;;;3.40;2.50;;;15.60;98.00;;;;;;5038495;28;20456;-88
2024/03/15 12:08:42;;;;;;;5.13;2.27;;;15.70;98.00;;;;;;5039252;28;20453;-88
2024/03/15 12:11:09;;;;;;;4.17;2.10;;;15.90;98.00;;;;;;5038328;28;20481;-88
2024/03/15 12:13:37;;;;;;;4.37;2.70;;;16.00;98.00;;;;;;5038445;28;20468;-89
2024/03/15 12:16:05;;;;;;;4.30;3.03;;;16.30;98.00;;;;;;5039765;28;20453;-89
2024/03/15 12:18:33;;;;;;;4.80;3.17;;;16.40;98.00;;;;;;5039251;28;20461;-89
2024/03/15 12:21:00;;;;;;;5.73;2.50;;;16.40;98.00;;;;;;5038689;28;21018;-89
2024/03/15 12:23:27;;;;;;;3.20;2.50;;;16.40;98.00;;;;;;5038581;28;20441;-89
2024/03/15 12:25:54;;;;;;;3.50;2.47;;;16.40;98.00;;;;;;5038919;28;20485;-89
2024/03/15 12:28:21;;;;;;;4.20;2.57;;;16.30;98.00;;;;;;5038630;28;20443;-89
2024/03/15 12:30:49;;;;;;;4.97;2.70;;;16.40;98.00;;;;;;5039524;28;20496;-89
2024/03/15 12:33:16;;;;;;;4.57;2.63;;;16.30;98.00;;;;;;5039727;28;20449;-89
2024/03/15 12:35:44;;;;;;;4.70;2.90;;;16.20;98.00;;;;;;5039045;28;20429;-89
2024/03/15 12:38:12;;;;;;;5.67;2.93;;;16.20;98.00;;;;;;5039065;28;20848;-88
2024/03/15 12:40:42;;;;;;;3.80;2.70;;;16.30;98.00;;;;;;5039557;28;20513;-89
2024/03/15 12:43:10;;;;;;;10.97;3.20;;;16.30;98.00;;;;;;5040602;28;20872;-88
2024/03/15 12:45:38;;;;;;;5.50;3.90;;;16.30;98.00;;;;;;5039496;28;20495;-88
2024/03/15 12:48:06;;;;;;;5.87;3.70;;;16.10;98.00;;;;;;5063066;28;20540;-87
2024/03/15 12:50:34;;;;;;;4.47;3.07;;;16.00;98.00;;;;;;5046673;28;21160;-87
2024/03/15 12:53:02;;;;;;;4.67;2.70;;;15.90;98.00;;;;;;5038270;28;20469;-87
2024/03/15 12:55:30;;;;;;;4.37;3.30;;;15.80;98.00;;;;;;5038345;28;20464;-87
2024/03/15 12:57:57;;;;;;;7.37;3.30;;;15.70;98.00;;;;;;5037849;28;20790;-87
2024/03/15 13:00:28;;;;;;;4.13;2.83;;;15.60;98.00;;;;;;5037153;28;20468;-87
2024/03/15 13:02:55;;;;;;;5.77;3.40;;;15.60;98.00;;;;;;5038798;28;20490;-88
2024/03/15 13:05:22;;;;;;;5.67;3.30;;;15.60;98.00;;;;;;5037470;28;20476;-87